RPi & Temperatures at JO21ut

Last graph updates: Saturday 16 December 2017 11:02 CET

Sunrise: 08:36 & Sunset: 16:29 The Sun is currently visible at an elevation of 14.11 degrees and azimut of 168 and 147214753 Km from the Earth
Moonrise: 6:27 & Moonset: 15:48 New Moon The Moon is 402639 Km from the Earth
Find here more details on MARS.

11:42:02 up 18 days, 14:04, 0 users, load average: 0.45, 0.38, 0.40
Current CPU frequency is: 1000 Mhz
Current GPU temperature: 25.02°C
Current inside temperature is 15.3°C with a humidity of 68.9%
Second inside temperature is 15.4°C with a pressure of 1007.21 Hpa (29.51 inHg) and an uncorrected altitude of 50.16 m
ds18b20 now showing 15.4°C

All the sensors I use, DHT22 | BMP085 | MPU6050 | BH1750FVI | MMA7455 | HMC5883L | MPL3115A2 | DS1307 | HTU21 | AM2321 | DS3231 | INA219 , and it's current readout can be viewed here please be patient as it needs to read all sensors data. The page loads after about 10 seconds. In our forum more details can be found such as the used software/sources. Feel free to add yours also..


Pressure BMP085
Pressure BMP085
Pressure BMP085
Pressure BMP085
PI CPU Temp
Inet Volkel temp
Inside temp BMP085
Humidity BMP085
PI CPU Temp
Inet Volkel temp
Inside temp BMP085
Humidity BMP085
PI CPU Temp
Inet Volkel temp
Inside temp BMP085
Humidity BMP085
PI CPU Temp
Inet Volkel temp
Inside temp BMP085
Humidity BMP085
PI CPU Temp
Inet Volkel temp
Inside temp BMP085
Humidity BMP085
Inside light BH1750FV
Inside light BH1750FV
Inside light BH1750FV
Inside light BH1750FV
Inside light BH1750FV
Inside light BH1750FV
 

Sun & Moon height


Wijchen weather

Weer Widget
ScreenSaver yr.no

Sun Moon Earth


EHEH 161025Z AUTO 27009KT 230V330 9999 FEW068 SCT081 04/02 Q1012 BLU 26007KT 9999 FEW020 SCT045 TEMPO FEW018CB BKN030 EHEH 161025Z AUTO 27009KT 230V330 9999 FEW068 SCT081 04/02 Q1012 BLU 26007KT 9999 FEW020 SCT045 TEMPO FEW018CB BKN030 EHEH 161025Z AUTO 27009KT 230V330 9999 FEW068 SCT081 04/02 Q1012 BLU 26007KT 9999 FEW020 SCT045 TEMPO FEW018CB BKN030

Weather data from Volkel [NL] EHVK


17 minutes ago, at 10:25 UTC, the wind was blowing at a speed of 3.6 meters per second (8.1 miles per hour/7 knots) from West (260) in Volkel [EHVK], Netherlands. The temperature was 4 °C (39 °F) with a dewpoint of 2 °C (36 °F), the windchill was 0 °C (33 °F) and the pressure was 1,012 hPa (29.88 inHg). The relative humidity was 86.8%. There were a few clouds at a height of 2073 meter (6800 feet), scattered clouds at a height of 2469 meter (8100 feet) and a few clouds at a height of 610 meter (2000 feet). The visibility was >10 kilometers (>6.2 miles).




View code:

Contact me  |  My Raspberry PI forum